Time;durP1;ratioP1;P1;durP2;ratioP2;P2;SDS_P1;SDS_P2;PMS_P1;PMS_P2;Temp;Humidity;BMP_temperature;BMP_pressure;BME280_temperature;BME280_humidity;BME280_pressure;Samples;Min_cycle;Max_cycle;Signal;HPM_P1;HPM_P2
2022/01/27 00:04:37;;;;;;;;;;;2.40;99.90;;;;;;5217347;27;20040;-87
2022/01/27 00:07:05;;;;;;;;;;;2.40;99.90;;;;;;5215788;27;20022;-86
2022/01/27 00:10:07;;;;;;;;;;;2.40;99.90;;;;;;5217451;27;20000;-86
2022/01/27 00:12:36;;;;;;;;;;;2.40;99.90;;;;;;5215238;27;20031;-86
2022/01/27 00:15:12;;;;;;;;;;;2.40;99.90;;;;;;5216640;27;19996;-86
2022/01/27 00:17:46;;;;;;;;;;;2.40;99.90;;;;;;5215520;27;20019;-86
2022/01/27 00:20:14;;;;;;;;;;;2.40;99.90;;;;;;5215780;27;19992;-86
2022/01/27 00:22:42;;;;;;;;;;;2.40;99.90;;;;;;5214745;27;20015;-87
2022/01/27 00:25:13;;;;;;;;;;;2.50;99.90;;;;;;5216050;27;20413;-86
2022/01/27 00:27:43;;;;;;;;;;;2.40;99.90;;;;;;5196561;27;34159;-86
2022/01/27 00:30:11;;;;;;;;;;;2.50;99.90;;;;;;5197646;27;20027;-87
2022/01/27 00:32:40;;;;;;;;;;;2.40;99.90;;;;;;5214061;27;40530;-86
2022/01/27 00:35:08;;;;;;;;;;;2.40;99.90;;;;;;5214230;27;28061;-88
2022/01/27 00:37:36;;;;;;;;;;;2.50;99.90;;;;;;5213977;27;36799;-88
2022/01/27 00:40:04;;;;;;;;;;;2.50;99.90;;;;;;5215349;27;34306;-87
2022/01/27 00:42:32;;;;;;;;;;;2.40;99.90;;;;;;5215191;27;20067;-87
2022/01/27 00:45:05;;;;;;;;;;;2.40;99.90;;;;;;5215308;27;20048;-87
2022/01/27 00:47:32;;;;;;;;;;;2.50;99.90;;;;;;5213923;27;41637;-88
2022/01/27 00:49:59;;;;;;;;;;;2.50;99.90;;;;;;5215962;27;34855;-87
2022/01/27 00:52:41;;;;;;;;;;;2.50;99.90;;;;;;5215061;27;20000;-87
2022/01/27 00:55:10;;;;;;;;;;;2.50;99.90;;;;;;5215741;27;39730;-88
2022/01/27 00:58:02;;;;;;;;;;;2.50;99.90;;;;;;5215684;27;27441;-88
2022/01/27 01:00:35;;;;;;;;;;;2.50;99.90;;;;;;5217315;27;32375;-87
2022/01/27 01:03:08;;;;;;;;;;;2.40;99.90;;;;;;5197768;27;36965;-87
2022/01/27 01:16:03;;;;;;;;;;;2.50;99.90;;;;;;5217172;27;20004;-86
2022/01/27 01:18:56;;;;;;;;;;;2.50;99.90;;;;;;5216128;27;30101;-86
2022/01/27 01:21:41;;;;;;;;;;;2.50;99.90;;;;;;5216425;27;20006;-87
2022/01/27 01:32:50;;;;;;;;;;;2.50;99.90;;;;;;5217444;27;21854;-86
2022/01/27 01:35:27;;;;;;;;;;;2.50;99.90;;;;;;5198479;27;21772;-86
2022/01/27 01:37:58;;;;;;;;;;;2.40;99.90;;;;;;5197653;27;35511;-86
2022/01/27 01:40:25;;;;;;;;;;;2.50;99.90;;;;;;5217510;27;23752;-86
2022/01/27 01:42:55;;;;;;;;;;;2.50;99.90;;;;;;5215574;27;20000;-86
2022/01/27 01:45:26;;;;;;;;;;;2.50;99.90;;;;;;5216208;27;20034;-87
2022/01/27 01:48:01;;;;;;;;;;;2.50;99.90;;;;;;5217071;27;20031;-85
2022/01/27 01:50:28;;;;;;;;;;;2.50;99.90;;;;;;5216716;27;33549;-87
2022/01/27 01:52:56;;;;;;;;;;;2.50;99.90;;;;;;5214750;27;41189;-87
2022/01/27 01:55:23;;;;;;;;;;;2.50;99.90;;;;;;5214530;27;45638;-87
2022/01/27 01:57:51;;;;;;;;;;;2.50;99.90;;;;;;5215603;27;20025;-86
2022/01/27 02:00:21;;;;;;;;;;;2.50;99.90;;;;;;5216952;27;20416;-87
2022/01/27 02:02:51;;;;;;;;;;;2.50;99.90;;;;;;5214973;27;36776;-87
2022/01/27 02:05:19;;;;;;;;;;;2.50;99.90;;;;;;5196674;27;42535;-87
2022/01/27 02:08:12;;;;;;;;;;;2.50;99.90;;;;;;5215530;27;19996;-86
2022/01/27 02:19:13;;;;;;;;;;;2.50;99.90;;;;;;5217040;27;20352;-86
2022/01/27 02:21:49;;;;;;;;;;;2.50;99.90;;;;;;5198926;27;20027;-86
2022/01/27 02:24:17;;;;;;;;;;;2.60;99.90;;;;;;5215920;27;20000;-86
2022/01/27 02:26:49;;;;;;;;;;;2.50;99.90;;;;;;5215641;27;20017;-86
2022/01/27 02:29:22;;;;;;;;;;;2.60;99.90;;;;;;5215087;27;42326;-87
2022/01/27 02:31:53;;;;;;;;;;;2.60;99.90;;;;;;5197446;27;35374;-87
2022/01/27 02:34:24;;;;;;;;;;;2.60;99.90;;;;;;5216215;27;39409;-87
2022/01/27 02:36:51;;;;;;;;;;;2.60;99.90;;;;;;5216508;27;19996;-87
2022/01/27 02:39:19;;;;;;;;;;;2.60;99.90;;;;;;5215996;27;19992;-86
2022/01/27 02:41:50;;;;;;;;;;;2.60;99.90;;;;;;5215571;27;44540;-88
2022/01/27 02:44:25;;;;;;;;;;;2.60;99.90;;;;;;5217660;27;19999;-86
2022/01/27 02:46:58;;;;;;;;;;;2.60;99.90;;;;;;5215773;27;20000;-86
2022/01/27 02:49:28;;;;;;;;;;;2.60;99.90;;;;;;5215640;27;20004;-87
2022/01/27 02:51:55;;;;;;;;;;;2.60;99.90;;;;;;5290130;27;19991;-86
2022/01/27 02:54:22;;;;;;;;;;;2.70;99.90;;;;;;5216595;27;37740;-87
2022/01/27 02:56:52;;;;;;;;;;;2.70;99.90;;;;;;5215784;27;20403;-87
2022/01/27 02:59:23;;;;;;;;;;;2.60;99.90;;;;;;5217003;27;20043;-87
2022/01/27 03:01:51;;;;;;;;;;;2.60;99.90;;;;;;5216282;27;27414;-88
2022/01/27 03:04:22;;;;;;;;;;;2.70;99.90;;;;;;5216377;27;20042;-86
2022/01/27 03:06:55;;;;;;;;;;;2.70;99.90;;;;;;5215866;27;20069;-88
2022/01/27 03:09:22;;;;;;;;;;;2.70;99.90;;;;;;5214322;27;44472;-87
2022/01/27 03:11:52;;;;;;;;;;;2.70;99.90;;;;;;5216282;27;20989;-87
2022/01/27 03:14:31;;;;;;;;;;;2.70;99.90;;;;;;5215811;27;19992;-87
2022/01/27 03:17:04;;;;;;;;;;;2.70;99.90;;;;;;5216353;27;20496;-86
2022/01/27 03:19:38;;;;;;;;;;;2.70;99.90;;;;;;5198494;27;19992;-86
2022/01/27 03:22:08;;;;;;;;;;;2.70;99.90;;;;;;5215497;27;24128;-87
2022/01/27 03:24:38;;;;;;;;;;;2.70;99.90;;;;;;5216173;27;20036;-86
2022/01/27 03:27:46;;;;;;;;;;;2.70;99.90;;;;;;5214797;27;25067;-87
2022/01/27 03:30:02;;;;;;;;;;;2.70;99.90;;;;;;5217848;27;27495;-87
2022/01/27 03:32:48;;;;;;;;;;;2.70;99.90;;;;;;5216951;27;19995;-87
2022/01/27 03:35:26;;;;;;;;;;;2.70;99.90;;;;;;5214381;27;33347;-86
2022/01/27 03:37:53;;;;;;;;;;;2.70;99.90;;;;;;5214719;27;38703;-87
2022/01/27 03:40:22;;;;;;;;;;;2.80;99.90;;;;;;5216028;27;28212;-87
2022/01/27 03:43:04;;;;;;;;;;;2.70;99.90;;;;;;5198298;27;20007;-86
2022/01/27 03:45:33;;;;;;;;;;;2.80;99.90;;;;;;5215620;27;44257;-87
2022/01/27 03:48:03;;;;;;;;;;;2.80;99.90;;;;;;5214848;27;33484;-87
2022/01/27 03:50:33;;;;;;;;;;;2.80;99.90;;;;;;5216930;27;20008;-86
2022/01/27 03:53:03;;;;;;;;;;;2.80;99.90;;;;;;5196800;27;27137;-87
2022/01/27 03:55:33;;;;;;;;;;;2.80;99.90;;;;;;5213822;27;41238;-87
2022/01/27 03:58:06;;;;;;;;;;;2.80;99.90;;;;;;5214650;27;43722;-87
2022/01/27 04:00:34;;;;;;;;;;;2.80;99.90;;;;;;5215495;27;19994;-87
2022/01/27 04:03:09;;;;;;;;;;;2.80;99.90;;;;;;5214184;27;37612;-87
2022/01/27 04:05:42;;;;;;;;;;;2.80;99.90;;;;;;5214661;27;36711;-86
2022/01/27 04:08:11;;;;;;;;;;;2.80;99.90;;;;;;5214752;27;24604;-89
2022/01/27 04:10:38;;;;;;;;;;;2.80;99.90;;;;;;5215281;27;19995;-88
2022/01/27 04:13:06;;;;;;;;;;;2.80;99.90;;;;;;5214724;27;20000;-86
2022/01/27 04:15:35;;;;;;;;;;;2.90;99.90;;;;;;5214099;27;34309;-88
2022/01/27 04:18:05;;;;;;;;;;;2.90;99.90;;;;;;5215707;27;19988;-86
2022/01/27 04:20:39;;;;;;;;;;;2.90;99.90;;;;;;5197048;27;39338;-87
2022/01/27 04:23:06;;;;;;;;;;;2.90;99.90;;;;;;5196856;27;42023;-88
2022/01/27 04:25:39;;;;;;;;;;;2.90;99.90;;;;;;5197072;27;34274;-87
2022/01/27 04:28:09;;;;;;;;;;;2.90;99.90;;;;;;5214499;27;28341;-87
2022/01/27 04:30:39;;;;;;;;;;;2.90;99.90;;;;;;5217091;27;20023;-84
2022/01/27 04:33:11;;;;;;;;;;;2.90;99.90;;;;;;5217602;27;35015;-86
2022/01/27 04:35:47;;;;;;;;;;;2.90;99.90;;;;;;5217827;27;22933;-87
2022/01/27 04:48:47;;;;;;;;;;;2.90;99.90;;;;;;5216944;27;20003;-87
2022/01/27 04:51:17;;;;;;;;;;;3.00;99.90;;;;;;5217354;27;32429;-87
2022/01/27 04:56:25;;;;;;;;;;;3.00;99.90;;;;;;5217032;27;19988;-86
2022/01/27 04:59:00;;;;;;;;;;;3.00;99.90;;;;;;5199013;27;19984;-86
2022/01/27 05:01:35;;;;;;;;;;;3.00;99.90;;;;;;5218775;27;19999;-86
2022/01/27 05:04:16;;;;;;;;;;;3.00;99.90;;;;;;5239691;27;19991;-86
2022/01/27 05:06:48;;;;;;;;;;;3.00;99.90;;;;;;5218729;27;20039;-86
2022/01/27 05:09:18;;;;;;;;;;;3.00;99.90;;;;;;5220449;27;28444;-88
2022/01/27 05:11:53;;;;;;;;;;;3.00;99.90;;;;;;5201215;27;37863;-87
2022/01/27 05:14:25;;;;;;;;;;;3.00;99.90;;;;;;5220412;27;20376;-86
2022/01/27 05:16:52;;;;;;;;;;;3.00;99.90;;;;;;5220168;27;19998;-86
2022/01/27 05:19:23;;;;;;;;;;;3.00;99.90;;;;;;5220227;27;20052;-86
2022/01/27 05:21:53;;;;;;;;;;;3.00;99.90;;;;;;5201662;27;39972;-86
2022/01/27 05:24:23;;;;;;;;;;;3.00;99.90;;;;;;5219390;27;35873;-87
2022/01/27 05:26:53;;;;;;;;;;;3.00;99.90;;;;;;5239027;27;20012;-86
2022/01/27 05:29:23;;;;;;;;;;;3.00;99.90;;;;;;5219841;27;20029;-88
2022/01/27 05:31:52;;;;;;;;;;;3.00;99.90;;;;;;5219248;27;35659;-87
2022/01/27 05:34:22;;;;;;;;;;;3.00;99.90;;;;;;5202374;27;20039;-87
2022/01/27 05:36:52;;;;;;;;;;;3.00;99.90;;;;;;5201179;27;32159;-87
2022/01/27 05:39:22;;;;;;;;;;;3.00;99.90;;;;;;5202255;27;20031;-86
2022/01/27 05:41:53;;;;;;;;;;;3.10;99.90;;;;;;5238915;27;32213;-87
2022/01/27 05:44:23;;;;;;;;;;;3.00;99.90;;;;;;5202223;27;20031;-86
2022/01/27 05:46:54;;;;;;;;;;;3.00;99.90;;;;;;5218858;27;28348;-88
2022/01/27 05:49:26;;;;;;;;;;;3.00;99.90;;;;;;5219120;27;34335;-87
2022/01/27 05:51:54;;;;;;;;;;;3.10;99.90;;;;;;5219346;27;27623;-88
2022/01/27 05:54:24;;;;;;;;;;;3.10;99.90;;;;;;5218468;27;41126;-89
2022/01/27 05:56:51;;;;;;;;;;;3.10;99.90;;;;;;5238300;27;35756;-87
2022/01/27 05:59:21;;;;;;;;;;;3.10;99.90;;;;;;5219998;27;19998;-87
2022/01/27 06:01:54;;;;;;;;;;;3.10;99.90;;;;;;5218410;27;34522;-87
2022/01/27 06:04:21;;;;;;;;;;;3.10;99.90;;;;;;5238186;27;34441;-88
2022/01/27 06:06:49;;;;;;;;;;;3.10;99.90;;;;;;5200795;27;44269;-86
2022/01/27 06:09:19;;;;;;;;;;;3.10;99.90;;;;;;5201870;27;19992;-87
2022/01/27 06:11:51;;;;;;;;;;;3.10;99.90;;;;;;5237960;27;41912;-87
2022/01/27 06:14:21;;;;;;;;;;;3.20;99.90;;;;;;5237833;27;43950;-87
2022/01/27 06:16:54;;;;;;;;;;;3.20;99.90;;;;;;5202394;27;20405;-86
2022/01/27 06:19:27;;;;;;;;;;;3.10;99.90;;;;;;5202645;27;20429;-88
2022/01/27 06:22:11;;;;;;;;;;;3.20;99.90;;;;;;5220586;27;20043;-88
2022/01/27 06:24:39;;;;;;;;;;;3.10;99.90;;;;;;5201189;27;25372;-87
2022/01/27 06:27:07;;;;;;;;;;;3.10;99.90;;;;;;5219163;27;29014;-87
2022/01/27 06:29:34;;;;;;;;;;;3.10;99.90;;;;;;5200828;27;29884;-87
2022/01/27 06:32:02;;;;;;;;;;;3.20;99.90;;;;;;5200857;27;41170;-88
2022/01/27 06:34:32;;;;;;;;;;;3.10;99.90;;;;;;5201560;27;23107;-87
2022/01/27 06:37:04;;;;;;;;;;;3.10;99.90;;;;;;5238868;27;20022;-88
2022/01/27 06:39:34;;;;;;;;;;;3.10;99.90;;;;;;5219491;27;22242;-87
2022/01/27 06:42:01;;;;;;;;;;;3.20;99.90;;;;;;5200621;27;35187;-87
2022/01/27 06:44:29;;;;;;;;;;;3.20;99.90;;;;;;5220135;27;20039;-86
2022/01/27 06:46:59;;;;;;;;;;;3.20;99.90;;;;;;5201780;27;20438;-87
2022/01/27 06:49:29;;;;;;;;;;;3.10;99.90;;;;;;5220168;27;23535;-88
2022/01/27 06:51:56;;;;;;;;;;;3.10;99.90;;;;;;5218327;27;24459;-89
2022/01/27 06:54:24;;;;;;;;;;;3.20;99.90;;;;;;5218996;27;20006;-89
2022/01/27 06:56:54;;;;;;;;;;;3.20;99.90;;;;;;5237911;27;20038;-87
2022/01/27 06:59:24;;;;;;;;;;;3.20;99.90;;;;;;5218008;27;40624;-88
2022/01/27 07:01:51;;;;;;;;;;;3.20;99.90;;;;;;5237161;27;36693;-88
2022/01/27 07:04:23;;;;;;;;;;;3.20;99.90;;;;;;5202270;27;20089;-88
2022/01/27 07:06:52;;;;;;;;;;;3.20;99.90;;;;;;5202009;27;20385;-87
2022/01/27 07:09:22;;;;;;;;;;;3.20;99.90;;;;;;5219175;27;20107;-87
2022/01/27 07:12:00;;;;;;;;;;;3.20;99.90;;;;;;5238848;27;20124;-87
2022/01/27 07:14:32;;;;;;;;;;;3.20;99.90;;;;;;5238398;27;20011;-87
2022/01/27 07:17:01;;;;;;;;;;;3.20;99.90;;;;;;5201771;27;20030;-85
2022/01/27 07:19:28;;;;;;;;;;;3.20;99.90;;;;;;5219082;27;20007;-87
2022/01/27 07:21:55;;;;;;;;;;;3.20;99.90;;;;;;5217890;27;37221;-86
2022/01/27 07:24:22;;;;;;;;;;;3.20;99.90;;;;;;5236873;27;32875;-87
2022/01/27 07:26:49;;;;;;;;;;;3.20;99.90;;;;;;5238175;27;21595;-87
2022/01/27 07:29:16;;;;;;;;;;;3.20;99.90;;;;;;5200455;27;33722;-86
2022/01/27 07:31:43;;;;;;;;;;;3.20;99.90;;;;;;5237735;27;28280;-87
2022/01/27 07:34:14;;;;;;;;;;;3.30;99.90;;;;;;5200145;27;40225;-85
2022/01/27 07:36:41;;;;;;;;;;;3.30;99.90;;;;;;5200561;27;28060;-87
2022/01/27 07:39:14;;;;;;;;;;;3.30;99.90;;;;;;5201946;27;19995;-87
2022/01/27 07:41:42;;;;;;;;;;;3.30;99.90;;;;;;5201496;27;20006;-87
2022/01/27 07:44:09;;;;;;;;;;;3.30;99.90;;;;;;5217934;27;36723;-87
2022/01/27 07:46:38;;;;;;;;;;;3.30;99.90;;;;;;5219089;27;20028;-87
2022/01/27 07:49:07;;;;;;;;;;;3.30;99.90;;;;;;5238507;27;20384;-87
2022/01/27 07:51:40;;;;;;;;;;;3.30;99.90;;;;;;5220154;27;20003;-87
2022/01/27 07:54:10;;;;;;;;;;;3.30;99.90;;;;;;5218949;27;19999;-87
2022/01/27 07:56:41;;;;;;;;;;;3.30;99.90;;;;;;5218828;27;19995;-87
2022/01/27 07:59:09;;;;;;;;;;;3.30;99.90;;;;;;5219338;27;19991;-87
2022/01/27 08:01:36;;;;;;;;;;;3.30;99.90;;;;;;5201025;27;20007;-87
2022/01/27 08:04:08;;;;;;;;;;;3.40;99.90;;;;;;5201637;27;20003;-87
2022/01/27 08:06:38;;;;;;;;;;;3.40;99.90;;;;;;5218045;27;25792;-87
2022/01/27 08:09:08;;;;;;;;;;;3.40;99.90;;;;;;5200941;27;25735;-87
2022/01/27 08:11:37;;;;;;;;;;;3.40;99.90;;;;;;5236915;27;40438;-87
2022/01/27 08:14:04;;;;;;;;;;;3.40;99.90;;;;;;5200680;27;19988;-86
2022/01/27 08:16:34;;;;;;;;;;;3.40;99.90;;;;;;5217789;27;38812;-86
2022/01/27 08:19:01;;;;;;;;;;;3.50;99.90;;;;;;5218856;27;19991;-87
2022/01/27 08:21:35;;;;;;;;;;;3.50;99.90;;;;;;5201815;27;20170;-87
2022/01/27 08:24:03;;;;;;;;;;;3.50;99.90;;;;;;5237997;27;19999;-87
2022/01/27 08:26:42;;;;;;;;;;;3.50;99.90;;;;;;5219157;27;20011;-86
2022/01/27 08:34:32;;;;;;;;;;;3.50;99.90;;;;;;5237192;27;39667;-86
2022/01/27 08:37:04;;;;;;;;;;;3.60;99.90;;;;;;5217851;27;29996;-86
2022/01/27 08:39:31;;;;;;;;;;;3.60;99.90;;;;;;5218184;27;42279;-87
2022/01/27 08:42:05;;;;;;;;;;;3.60;99.90;;;;;;5236951;27;31371;-87
2022/01/27 08:44:36;;;;;;;;;;;3.60;99.90;;;;;;5218372;27;28882;-87
2022/01/27 08:47:06;;;;;;;;;;;3.60;99.90;;;;;;5237006;27;25796;-87
2022/01/27 08:49:36;;;;;;;;;;;3.60;99.90;;;;;;5236342;27;41072;-87
2022/01/27 08:52:06;;;;;;;;;;;3.60;99.90;;;;;;5217227;27;41549;-87
2022/01/27 08:54:36;;;;;;;;;;;3.60;99.90;;;;;;5218277;27;34470;-87
2022/01/27 08:57:04;;;;;;;;;;;3.60;99.90;;;;;;5237079;27;23122;-87
2022/01/27 08:59:31;;;;;;;;;;;3.60;99.90;;;;;;5218147;27;20092;-86
2022/01/27 09:01:58;;;;;;;;;;;3.70;99.90;;;;;;5237864;27;20426;-86
2022/01/27 09:04:31;;;;;;;;;;;3.70;99.90;;;;;;5218863;27;20011;-87
2022/01/27 09:06:58;;;;;;;;;;;3.70;99.90;;;;;;5218501;27;23096;-87
2022/01/27 09:09:25;;;;;;;;;;;3.70;99.90;;;;;;5218838;27;22140;-87
2022/01/27 09:11:55;;;;;;;;;;;3.70;99.90;;;;;;5237305;27;25766;-87
2022/01/27 09:14:23;;;;;;;;;;;3.70;99.90;;;;;;5200655;27;26539;-86
2022/01/27 09:17:01;;;;;;;;;;;3.70;99.90;;;;;;5220397;27;37055;-87
2022/01/27 09:19:36;;;;;;;;;;;3.70;99.90;;;;;;5238822;27;29019;-87
2022/01/27 09:22:12;;;;;;;;;;;3.70;99.90;;;;;;5219768;27;35830;-87
2022/01/27 09:24:54;;;;;;;;;;;3.70;99.90;;;;;;5238654;27;31008;-87
2022/01/27 09:27:27;;;;;;;;;;;3.70;99.90;;;;;;5219473;27;30242;-87
2022/01/27 09:30:17;;;;;;;;;;;3.80;99.90;;;;;;5223524;27;20021;-87
2022/01/27 09:32:49;;;;;;;;;;;3.80;99.90;;;;;;5239009;27;19995;-87
2022/01/27 09:35:22;;;;;;;;;;;3.80;99.90;;;;;;5203201;27;20008;-87
2022/01/27 09:37:55;;;;;;;;;;;3.80;99.90;;;;;;5220405;27;20062;-86
2022/01/27 09:40:25;;;;;;;;;;;3.80;99.90;;;;;;5220062;27;20000;-87
2022/01/27 09:42:54;;;;;;;;;;;3.80;99.90;;;;;;5238746;27;20013;-87
2022/01/27 09:45:22;;;;;;;;;;;3.80;99.90;;;;;;5220501;27;20376;-87
2022/01/27 09:47:59;;;;;;;;;;;3.80;99.90;;;;;;5202108;27;20396;-89
2022/01/27 09:50:48;;;;;;;;;;;3.80;99.90;;;;;;5202247;27;19992;-87
2022/01/27 09:53:20;;;;;;;;;;;3.90;99.90;;;;;;5239000;27;20021;-87
2022/01/27 09:55:47;;;;;;;;;;;3.90;99.90;;;;;;5238799;27;20046;-87
2022/01/27 09:58:18;;;;;;;;;;;3.90;99.90;;;;;;5219701;27;20011;-87
2022/01/27 10:00:51;;;;;;;;;;;3.90;99.90;;;;;;5202365;27;20485;-86
2022/01/27 10:03:19;;;;;;;;;;;3.90;99.90;;;;;;5219952;27;20019;-87
2022/01/27 10:05:49;;;;;;;;;;;3.90;99.90;;;;;;5202392;27;19998;-87
2022/01/27 10:08:21;;;;;;;;;;;3.90;99.90;;;;;;5202521;27;20043;-87
2022/01/27 10:10:56;;;;;;;;;;;3.90;99.90;;;;;;5202585;27;20327;-87
2022/01/27 10:13:47;;;;;;;;;;;3.90;99.90;;;;;;5218717;27;25411;-87
2022/01/27 10:16:28;;;;;;;;;;;4.00;99.90;;;;;;5219336;27;20000;-87
2022/01/27 10:19:05;;;;;;;;;;;4.00;99.90;;;;;;5239050;27;20453;-87
2022/01/27 10:21:41;;;;;;;;;;;4.00;99.90;;;;;;5201885;27;24548;-87
2022/01/27 10:24:26;;;;;;;;;;;4.00;99.90;;;;;;5219423;27;31210;-87
2022/01/27 10:27:17;;;;;;;;;;;4.00;99.90;;;;;;5219083;27;27835;-87
2022/01/27 10:30:01;;;;;;;;;;;4.10;99.90;;;;;;5219545;27;27287;-87
2022/01/27 10:32:42;;;;;;;;;;;4.00;99.90;;;;;;5238404;27;31295;-87
2022/01/27 10:35:13;;;;;;;;;;;4.10;99.90;;;;;;5201856;27;19998;-87
2022/01/27 10:37:59;;;;;;;;;;;4.10;99.90;;;;;;5239148;27;20042;-86
2022/01/27 10:40:27;;;;;;;;;;;4.10;99.90;;;;;;5238876;27;19995;-87
2022/01/27 10:43:05;;;;;;;;;;;4.10;99.90;;;;;;5221058;27;19988;-87
2022/01/27 10:45:42;;;;;;;;;;;4.10;99.90;;;;;;5217980;27;45597;-87
2022/01/27 10:48:13;;;;;;;;;;;4.10;99.90;;;;;;5238372;27;24855;-87
2022/01/27 10:51:02;;;;;;;;;;;4.10;99.90;;;;;;5239166;27;20020;-87
2022/01/27 10:53:51;;;;;;;;;;;4.10;99.90;;;;;;5237003;27;19995;-88
2022/01/27 10:56:28;;;;;;;;;;;4.10;99.90;;;;;;5219916;27;20003;-88
2022/01/27 10:58:59;;;;;;;;;;;4.10;99.90;;;;;;5202008;27;20388;-88
2022/01/27 11:01:28;;;;;;;;;;;4.20;99.90;;;;;;5201319;27;20003;-88
2022/01/27 11:03:56;;;;;;;;;;;4.20;99.90;;;;;;5237684;27;20010;-88
2022/01/27 11:06:26;;;;;;;;;;;4.20;99.90;;;;;;5200436;27;37262;-88
2022/01/27 11:08:57;;;;;;;;;;;4.20;99.90;;;;;;5201040;27;20078;-88
2022/01/27 11:11:29;;;;;;;;;;;4.20;99.90;;;;;;5220421;27;20003;-87
2022/01/27 11:14:05;;;;;;;;;;;4.20;99.90;;;;;;5202052;27;20006;-87
2022/01/27 11:16:41;;;;;;;;;;;4.20;99.90;;;;;;5219740;27;19987;-87
2022/01/27 11:20:18;;;;;;;;;;;4.30;99.90;;;;;;5201762;27;20365;-87
2022/01/27 11:22:05;;;;;;;;;;;4.30;99.90;;;;;;5219404;27;20003;-87
2022/01/27 11:27:29;;;;;;;;;;;4.30;99.90;;;;;;5219023;27;20502;-87
2022/01/27 11:30:05;;;;;;;;;;;4.30;99.90;;;;;;5220109;27;19995;-87
2022/01/27 11:32:41;;;;;;;;;;;4.30;99.90;;;;;;5219734;27;20031;-87
2022/01/27 11:35:15;;;;;;;;;;;4.30;99.90;;;;;;5218074;27;21354;-87
2022/01/27 11:37:48;;;;;;;;;;;4.30;99.90;;;;;;5238728;27;19984;-87
2022/01/27 11:40:18;;;;;;;;;;;4.30;99.90;;;;;;5200365;27;38218;-86
2022/01/27 11:42:56;;;;;;;;;;;4.30;99.90;;;;;;5202161;27;24678;-87
2022/01/27 11:45:23;;;;;;;;;;;4.40;99.90;;;;;;5237092;27;25127;-87
2022/01/27 11:47:53;;;;;;;;;;;4.30;99.90;;;;;;5238065;27;20022;-87
2022/01/27 11:50:33;;;;;;;;;;;4.40;99.90;;;;;;5220069;27;20051;-87
2022/01/27 11:53:03;;;;;;;;;;;4.40;99.90;;;;;;5219796;27;20053;-87
2022/01/27 11:55:40;;;;;;;;;;;4.40;99.90;;;;;;5201508;27;19992;-86
2022/01/27 11:58:17;;;;;;;;;;;4.40;99.90;;;;;;5293699;27;20007;-87
2022/01/27 12:01:04;;;;;;;;;;;4.40;99.90;;;;;;5237552;27;19987;-89
2022/01/27 12:03:37;;;;;;;;;;;4.40;99.90;;;;;;5219187;27;20074;-87
2022/01/27 12:06:20;;;;;;;;;;;4.50;99.90;;;;;;5201820;27;19999;-87
2022/01/27 12:09:12;;;;;;;;;;;4.50;99.90;;;;;;5238228;27;19996;-89
2022/01/27 12:11:47;;;;;;;;;;;4.50;99.90;;;;;;5237841;27;19999;-81
2022/01/27 12:14:17;;;;;;;;;;;4.50;99.90;;;;;;5237048;27;20053;-82
2022/01/27 12:17:04;;;;;;;;;;;4.50;99.90;;;;;;5237941;27;21014;-81
2022/01/27 12:19:45;;;;;;;;;;;4.50;99.90;;;;;;5201065;27;22607;-81
2022/01/27 12:22:14;;;;;;;;;;;4.50;99.90;;;;;;5238308;27;20457;-81
2022/01/27 12:24:52;;;;;;;;;;;4.50;99.90;;;;;;5218900;27;20083;-81
2022/01/27 12:27:19;;;;;;;;;;;4.60;99.90;;;;;;5219224;27;19991;-81
2022/01/27 12:30:09;;;;;;;;;;;4.60;99.90;;;;;;5220712;27;38670;-81
2022/01/27 12:32:36;;;;;;;;;;;4.60;99.90;;;;;;5236776;27;41686;-81
2022/01/27 12:35:04;;;;;;;;;;;4.60;99.90;;;;;;5218117;27;34361;-81
2022/01/27 12:37:36;;;;;;;;;;;4.60;99.90;;;;;;5236963;27;39753;-81
2022/01/27 12:40:25;;;;;;;;;;;4.60;99.90;;;;;;5199880;27;39328;-81
2022/01/27 12:43:01;;;;;;;;;;;4.60;99.90;;;;;;5218155;27;42295;-81
2022/01/27 12:45:32;;;;;;;;;;;4.60;99.90;;;;;;5219583;27;20373;-81
2022/01/27 12:48:03;;;;;;;;;;;4.60;99.90;;;;;;5201527;27;20001;-81
2022/01/27 12:50:34;;;;;;;;;;;4.60;99.90;;;;;;5202328;27;19999;-81
2022/01/27 12:53:09;;;;;;;;;;;4.60;99.90;;;;;;5202528;27;20035;-81
2022/01/27 12:55:40;;;;;;;;;;;4.70;99.90;;;;;;5220872;27;20006;-81
2022/01/27 12:58:15;;;;;;;;;;;4.60;99.90;;;;;;5239448;27;20017;-81
2022/01/27 13:00:42;;;;;;;;;;;4.70;99.90;;;;;;5238485;27;37833;-82
2022/01/27 13:03:12;;;;;;;;;;;4.70;99.90;;;;;;5219689;27;20010;-81
2022/01/27 13:05:44;;;;;;;;;;;4.70;99.90;;;;;;5239571;27;19991;-81
2022/01/27 13:08:18;;;;;;;;;;;4.70;99.90;;;;;;5239756;27;20044;-81
2022/01/27 13:10:58;;;;;;;;;;;4.70;99.90;;;;;;5239705;27;20025;-81
2022/01/27 13:13:33;;;;;;;;;;;4.70;99.90;;;;;;5202424;27;19998;-81
2022/01/27 13:16:06;;;;;;;;;;;4.70;99.90;;;;;;5202730;27;20028;-81
2022/01/27 13:18:45;;;;;;;;;;;4.70;99.90;;;;;;5239433;27;19999;-81
2022/01/27 13:21:27;;;;;;;;;;;4.70;99.90;;;;;;5201419;27;31619;-81
2022/01/27 13:24:04;;;;;;;;;;;4.70;99.90;;;;;;5238475;27;32210;-81
2022/01/27 13:26:33;;;;;;;;;;;4.70;99.90;;;;;;5239819;27;20039;-81
2022/01/27 13:29:06;;;;;;;;;;;4.70;99.90;;;;;;5220152;27;20431;-81
2022/01/27 13:31:38;;;;;;;;;;;4.70;99.90;;;;;;5220217;27;19995;-81
2022/01/27 13:34:12;;;;;;;;;;;4.70;99.90;;;;;;5294330;27;19999;-81
2022/01/27 13:36:54;;;;;;;;;;;4.80;99.90;;;;;;5220220;27;31774;-81
2022/01/27 13:41:57;;;;;;;;;;;4.80;99.90;;;;;;5239193;27;20054;-81
2022/01/27 13:44:24;;;;;;;;;;;4.80;99.90;;;;;;5201395;27;28372;-81
2022/01/27 13:47:02;;;;;;;;;;;4.80;99.90;;;;;;5201254;27;44433;-81
2022/01/27 13:49:35;;;;;;;;;;;4.80;99.90;;;;;;5218797;27;42393;-81
2022/01/27 13:52:25;;;;;;;;;;;4.90;99.90;;;;;;5201211;27;45804;-81
2022/01/27 13:54:53;;;;;;;;;;;4.90;99.90;;;;;;5220019;27;20039;-81
2022/01/27 13:57:25;;;;;;;;;;;4.90;99.90;;;;;;5218989;27;42030;-81
2022/01/27 13:59:59;;;;;;;;;;;4.90;99.90;;;;;;5218594;27;37422;-82
2022/01/27 14:02:26;;;;;;;;;;;4.90;99.90;;;;;;5237563;27;40975;-82
2022/01/27 14:04:54;;;;;;;;;;;4.90;99.90;;;;;;5237411;27;37400;-81
2022/01/27 14:07:30;;;;;;;;;;;4.90;99.90;;;;;;5201781;27;20359;-81
2022/01/27 14:10:06;;;;;;;;;;;4.90;99.90;;;;;;5239181;27;20002;-81
2022/01/27 14:12:45;;;;;;;;;;;4.90;99.90;;;;;;5220259;27;20046;-81
2022/01/27 14:15:31;;;;;;;;;;;4.90;99.90;;;;;;5238678;27;20055;-81
2022/01/27 14:18:24;;;;;;;;;;;4.90;99.90;;;;;;5239272;27;20040;-81
2022/01/27 14:20:55;;;;;;;;;;;5.00;99.90;;;;;;5200855;27;44464;-81
2022/01/27 14:28:52;;;;;;;;;;;5.00;99.90;;;;;;5238870;27;20008;-81
2022/01/27 14:31:22;;;;;;;;;;;5.00;99.90;;;;;;5220116;27;20018;-81
2022/01/27 14:33:54;;;;;;;;;;;5.00;99.90;;;;;;5239268;27;20031;-81
2022/01/27 14:36:24;;;;;;;;;;;5.00;99.90;;;;;;5218170;27;38128;-81
2022/01/27 14:38:54;;;;;;;;;;;5.00;99.90;;;;;;5239041;27;20000;-81
2022/01/27 14:41:27;;;;;;;;;;;5.00;99.90;;;;;;5237925;27;38010;-81
2022/01/27 14:43:54;;;;;;;;;;;5.00;99.90;;;;;;5237456;27;43509;-81
2022/01/27 14:46:39;;;;;;;;;;;5.00;99.90;;;;;;5237179;27;35045;-81
2022/01/27 14:49:08;;;;;;;;;;;5.10;99.90;;;;;;5218570;27;30928;-82
2022/01/27 14:51:36;;;;;;;;;;;5.10;99.90;;;;;;5218668;27;25872;-82
2022/01/27 14:54:11;;;;;;;;;;;5.10;99.90;;;;;;5219268;27;31852;-82
2022/01/27 14:56:41;;;;;;;;;;;5.10;99.90;;;;;;5237651;27;42316;-82
2022/01/27 14:59:08;;;;;;;;;;;5.10;99.90;;;;;;5201140;27;20700;-82
2022/01/27 15:01:38;;;;;;;;;;;5.10;99.90;;;;;;5201893;27;20054;-81
2022/01/27 15:04:08;;;;;;;;;;;5.10;99.90;;;;;;5200565;27;37372;-81
2022/01/27 15:06:40;;;;;;;;;;;5.10;99.90;;;;;;5219847;27;20413;-82
2022/01/27 15:09:10;;;;;;;;;;;5.10;99.90;;;;;;5200362;27;44894;-82
2022/01/27 15:11:37;;;;;;;;;;;5.10;99.90;;;;;;5201416;27;20001;-81
2022/01/27 15:19:53;;;;;;;;;;;5.10;99.90;;;;;;5218742;27;21874;-82
2022/01/27 15:22:24;;;;;;;;;;;5.10;99.90;;;;;;5218478;27;44576;-81
2022/01/27 15:24:52;;;;;;;;;;;5.10;99.90;;;;;;5237861;27;27642;-82
2022/01/27 15:27:24;;;;;;;;;;;5.10;99.90;;;;;;5219054;27;20005;-81
2022/01/27 15:30:00;;;;;;;;;;;5.20;99.90;;;;;;5218793;27;35803;-81
2022/01/27 15:32:29;;;;;;;;;;;5.10;99.90;;;;;;5217938;27;36874;-82
2022/01/27 15:34:58;;;;;;;;;;;5.20;99.90;;;;;;5200020;27;46784;-82
2022/01/27 15:37:25;;;;;;;;;;;5.20;99.90;;;;;;5200674;27;33385;-81
2022/01/27 15:39:57;;;;;;;;;;;5.20;99.90;;;;;;5219153;27;20038;-82
2022/01/27 15:42:29;;;;;;;;;;;5.20;99.90;;;;;;5219874;27;19995;-83
2022/01/27 15:45:00;;;;;;;;;;;5.20;99.90;;;;;;5201596;27;19999;-83
2022/01/27 15:47:29;;;;;;;;;;;5.20;99.90;;;;;;5200513;27;36483;-83
2022/01/27 15:49:56;;;;;;;;;;;5.30;99.90;;;;;;5217896;27;42313;-82
2022/01/27 15:52:32;;;;;;;;;;;5.20;99.90;;;;;;5219662;27;20063;-82
2022/01/27 15:54:59;;;;;;;;;;;5.30;99.90;;;;;;5237340;27;33423;-83
2022/01/27 15:57:29;;;;;;;;;;;5.30;99.90;;;;;;5238240;27;20396;-82
2022/01/27 15:59:59;;;;;;;;;;;5.30;99.90;;;;;;5219180;27;20379;-82
2022/01/27 16:02:29;;;;;;;;;;;5.30;99.90;;;;;;5237649;27;20021;-82
2022/01/27 16:04:57;;;;;;;;;;;5.30;99.90;;;;;;5219890;27;20010;-83
2022/01/27 16:07:24;;;;;;;;;;;5.30;99.90;;;;;;5199964;27;42949;-82